aviador You're here:

LTCJ Decoded Metar

BATMAN in TURKEY
Report Time2017-07-24 16:20:00
UTC Time2017-07-24 16:34:32
Flight Rules vfr VFR
Wind210° at 05 kt
W.Decomp.*RWY 20: 5.0 kt HW 0.5 kt RCW
W.Rank210° ranks 7
Current wind is below 210° avg. (5.1)
Visibility9999 m
Phenomena:N/A
Clouds:N/A
Expected CloudBase > 7,600 ft AGL from Temp-Dew spread
CeilingNone
Temp32°C (ISA +21)
Dew Point13°C (31% RH)
Heat Index30.9°C
AAT31.0°C
QNH1000 hPa
Density Alt4,744 ft
Elevation1,772 ft
Report Wrong Elevation
Raw Report
METAR LTCJ 241620Z 21005KT CAVOK 32/13 Q1000=

Extra information for LTCJ:More info

Metar Taf Metar & Taf Last 4 Metars F.Rules Stats Wind Profile Meteogram Temp Stats Airport Information Weather charts Add Link Nearby VenuesMetar ALERT Operation Metar Decoded Social comments